sensor_id;sensor_type;location;lat;lon;timestamp;P1;durP1;ratioP1;P2;durP2;ratioP2
17854;SDS011;9053;53.358;6.382;2023-08-01T00:01:21;10.30;;;3.75;;
17854;SDS011;9053;53.358;6.382;2023-08-01T00:03:51;4.28;;;3.10;;
17854;SDS011;9053;53.358;6.382;2023-08-01T00:06:24;5.53;;;2.97;;
17854;SDS011;9053;53.358;6.382;2023-08-01T00:08:53;7.82;;;2.78;;
17854;SDS011;9053;53.358;6.382;2023-08-01T00:11:23;8.10;;;3.25;;
17854;SDS011;9053;53.358;6.382;2023-08-01T00:13:53;5.45;;;2.85;;
17854;SDS011;9053;53.358;6.382;2023-08-01T00:16:23;5.28;;;2.85;;
17854;SDS011;9053;53.358;6.382;2023-08-01T00:18:53;7.15;;;3.10;;
17854;SDS011;9053;53.358;6.382;2023-08-01T00:21:26;5.72;;;2.83;;
17854;SDS011;9053;53.358;6.382;2023-08-01T00:23:58;4.93;;;2.30;;
17854;SDS011;9053;53.358;6.382;2023-08-01T00:26:28;3.78;;;2.42;;
17854;SDS011;9053;53.358;6.382;2023-08-01T00:28:58;4.50;;;2.38;;
17854;SDS011;9053;53.358;6.382;2023-08-01T00:31:28;4.75;;;2.78;;
17854;SDS011;9053;53.358;6.382;2023-08-01T00:33:58;4.55;;;2.25;;
17854;SDS011;9053;53.358;6.382;2023-08-01T00:36:30;3.92;;;2.40;;
17854;SDS011;9053;53.358;6.382;2023-08-01T00:39:00;6.28;;;2.70;;
17854;SDS011;9053;53.358;6.382;2023-08-01T00:41:30;3.67;;;2.35;;
17854;SDS011;9053;53.358;6.382;2023-08-01T00:44:00;8.65;;;2.95;;
17854;SDS011;9053;53.358;6.382;2023-08-01T00:46:30;4.18;;;2.88;;
17854;SDS011;9053;53.358;6.382;2023-08-01T00:49:01;6.32;;;3.38;;
17854;SDS011;9053;53.358;6.382;2023-08-01T00:51:35;3.55;;;2.50;;
17854;SDS011;9053;53.358;6.382;2023-08-01T00:54:05;5.82;;;2.88;;
17854;SDS011;9053;53.358;6.382;2023-08-01T00:56:35;4.18;;;2.70;;
17854;SDS011;9053;53.358;6.382;2023-08-01T00:59:06;7.68;;;2.83;;
17854;SDS011;9053;53.358;6.382;2023-08-01T01:01:36;5.40;;;2.47;;
17854;SDS011;9053;53.358;6.382;2023-08-01T01:04:06;3.35;;;2.20;;
17854;SDS011;9053;53.358;6.382;2023-08-01T01:06:40;6.07;;;3.38;;
17854;SDS011;9053;53.358;6.382;2023-08-01T01:09:27;6.70;;;2.42;;
17854;SDS011;9053;53.358;6.382;2023-08-01T01:11:58;6.07;;;2.90;;
17854;SDS011;9053;53.358;6.382;2023-08-01T01:14:30;5.90;;;2.58;;
17854;SDS011;9053;53.358;6.382;2023-08-01T01:17:00;6.07;;;2.58;;
17854;SDS011;9053;53.358;6.382;2023-08-01T01:19:31;5.15;;;2.63;;
17854;SDS011;9053;53.358;6.382;2023-08-01T01:22:04;4.78;;;2.92;;
17854;SDS011;9053;53.358;6.382;2023-08-01T01:24:36;4.55;;;1.98;;
17854;SDS011;9053;53.358;6.382;2023-08-01T01:27:09;5.78;;;2.67;;
17854;SDS011;9053;53.358;6.382;2023-08-01T01:29:40;4.82;;;2.80;;
17854;SDS011;9053;53.358;6.382;2023-08-01T01:32:11;7.28;;;3.30;;
17854;SDS011;9053;53.358;6.382;2023-08-01T01:34:43;6.45;;;3.00;;
17854;SDS011;9053;53.358;6.382;2023-08-01T01:37:16;6.68;;;2.60;;
17854;SDS011;9053;53.358;6.382;2023-08-01T01:39:46;6.20;;;2.75;;
17854;SDS011;9053;53.358;6.382;2023-08-01T01:42:16;5.95;;;2.38;;
17854;SDS011;9053;53.358;6.382;2023-08-01T01:44:46;3.70;;;2.53;;
17854;SDS011;9053;53.358;6.382;2023-08-01T01:47:16;5.63;;;2.67;;
17854;SDS011;9053;53.358;6.382;2023-08-01T01:49:46;7.00;;;2.90;;
17854;SDS011;9053;53.358;6.382;2023-08-01T01:52:19;3.67;;;2.60;;
17854;SDS011;9053;53.358;6.382;2023-08-01T01:54:49;6.60;;;2.72;;
17854;SDS011;9053;53.358;6.382;2023-08-01T01:57:18;3.80;;;2.33;;
17854;SDS011;9053;53.358;6.382;2023-08-01T01:59:48;4.93;;;3.00;;
17854;SDS011;9053;53.358;6.382;2023-08-01T02:02:18;6.97;;;2.85;;
17854;SDS011;9053;53.358;6.382;2023-08-01T02:04:50;4.07;;;2.70;;
17854;SDS011;9053;53.358;6.382;2023-08-01T02:07:23;5.50;;;2.67;;
17854;SDS011;9053;53.358;6.382;2023-08-01T02:09:52;4.97;;;2.47;;
17854;SDS011;9053;53.358;6.382;2023-08-01T02:12:22;3.35;;;2.40;;
17854;SDS011;9053;53.358;6.382;2023-08-01T02:14:52;4.65;;;2.65;;
17854;SDS011;9053;53.358;6.382;2023-08-01T02:17:22;4.65;;;2.40;;
17854;SDS011;9053;53.358;6.382;2023-08-01T02:19:53;5.55;;;2.45;;
17854;SDS011;9053;53.358;6.382;2023-08-01T02:22:25;4.28;;;2.60;;
17854;SDS011;9053;53.358;6.382;2023-08-01T02:24:55;4.45;;;2.70;;
17854;SDS011;9053;53.358;6.382;2023-08-01T02:27:25;4.85;;;2.60;;
17854;SDS011;9053;53.358;6.382;2023-08-01T02:29:56;4.95;;;2.80;;
17854;SDS011;9053;53.358;6.382;2023-08-01T02:32:26;6.45;;;2.80;;
17854;SDS011;9053;53.358;6.382;2023-08-01T02:34:57;4.55;;;2.50;;
17854;SDS011;9053;53.358;6.382;2023-08-01T02:37:29;5.38;;;3.47;;
17854;SDS011;9053;53.358;6.382;2023-08-01T02:40:01;4.82;;;2.60;;
17854;SDS011;9053;53.358;6.382;2023-08-01T02:42:34;4.55;;;2.97;;
17854;SDS011;9053;53.358;6.382;2023-08-01T02:45:04;5.93;;;3.22;;
17854;SDS011;9053;53.358;6.382;2023-08-01T02:47:35;4.93;;;2.80;;
17854;SDS011;9053;53.358;6.382;2023-08-01T02:50:05;5.13;;;2.97;;
17854;SDS011;9053;53.358;6.382;2023-08-01T02:52:38;3.85;;;3.00;;
17854;SDS011;9053;53.358;6.382;2023-08-01T02:55:08;5.97;;;3.38;;
17854;SDS011;9053;53.358;6.382;2023-08-01T02:57:38;7.07;;;3.00;;
17854;SDS011;9053;53.358;6.382;2023-08-01T03:00:08;4.70;;;3.33;;
17854;SDS011;9053;53.358;6.382;2023-08-01T03:02:39;6.53;;;3.40;;
17854;SDS011;9053;53.358;6.382;2023-08-01T03:05:09;6.68;;;3.67;;
17854;SDS011;9053;53.358;6.382;2023-08-01T03:07:42;6.35;;;3.70;;
17854;SDS011;9053;53.358;6.382;2023-08-01T03:10:12;6.03;;;3.65;;
17854;SDS011;9053;53.358;6.382;2023-08-01T03:13:01;8.15;;;3.65;;
17854;SDS011;9053;53.358;6.382;2023-08-01T03:15:31;5.00;;;2.92;;
17854;SDS011;9053;53.358;6.382;2023-08-01T03:18:01;6.75;;;3.67;;
17854;SDS011;9053;53.358;6.382;2023-08-01T03:20:31;7.25;;;3.50;;
17854;SDS011;9053;53.358;6.382;2023-08-01T03:23:03;6.38;;;3.75;;
17854;SDS011;9053;53.358;6.382;2023-08-01T03:25:33;7.35;;;3.72;;
17854;SDS011;9053;53.358;6.382;2023-08-01T03:28:03;6.55;;;3.40;;
17854;SDS011;9053;53.358;6.382;2023-08-01T03:30:34;7.50;;;4.18;;
17854;SDS011;9053;53.358;6.382;2023-08-01T03:33:04;5.10;;;3.15;;
17854;SDS011;9053;53.358;6.382;2023-08-01T03:35:34;8.13;;;3.85;;
17854;SDS011;9053;53.358;6.382;2023-08-01T03:38:07;5.65;;;3.33;;
17854;SDS011;9053;53.358;6.382;2023-08-01T03:40:37;8.13;;;4.03;;
17854;SDS011;9053;53.358;6.382;2023-08-01T03:43:07;6.03;;;3.25;;
17854;SDS011;9053;53.358;6.382;2023-08-01T03:45:37;5.88;;;3.10;;
17854;SDS011;9053;53.358;6.382;2023-08-01T03:48:07;7.85;;;3.25;;
17854;SDS011;9053;53.358;6.382;2023-08-01T03:50:38;6.25;;;3.40;;
17854;SDS011;9053;53.358;6.382;2023-08-01T03:53:10;5.20;;;3.17;;
17854;SDS011;9053;53.358;6.382;2023-08-01T03:55:40;6.38;;;3.42;;
17854;SDS011;9053;53.358;6.382;2023-08-01T03:58:10;7.38;;;3.45;;
17854;SDS011;9053;53.358;6.382;2023-08-01T04:00:40;7.40;;;3.00;;
17854;SDS011;9053;53.358;6.382;2023-08-01T04:03:11;6.13;;;2.80;;
17854;SDS011;9053;53.358;6.382;2023-08-01T04:05:41;5.95;;;2.80;;
17854;SDS011;9053;53.358;6.382;2023-08-01T04:08:14;4.97;;;2.67;;
17854;SDS011;9053;53.358;6.382;2023-08-01T04:10:44;4.72;;;2.30;;
17854;SDS011;9053;53.358;6.382;2023-08-01T04:13:14;4.05;;;2.40;;
17854;SDS011;9053;53.358;6.382;2023-08-01T04:15:44;5.78;;;2.65;;
17854;SDS011;9053;53.358;6.382;2023-08-01T04:18:14;3.50;;;2.28;;
17854;SDS011;9053;53.358;6.382;2023-08-01T04:20:44;3.63;;;1.90;;
17854;SDS011;9053;53.358;6.382;2023-08-01T04:23:18;4.35;;;2.10;;
17854;SDS011;9053;53.358;6.382;2023-08-01T04:25:48;3.75;;;2.00;;
17854;SDS011;9053;53.358;6.382;2023-08-01T04:28:17;2.92;;;1.70;;
17854;SDS011;9053;53.358;6.382;2023-08-01T04:30:50;3.60;;;1.80;;
17854;SDS011;9053;53.358;6.382;2023-08-01T04:33:20;4.70;;;1.80;;
17854;SDS011;9053;53.358;6.382;2023-08-01T04:35:50;3.38;;;1.73;;
17854;SDS011;9053;53.358;6.382;2023-08-01T04:38:23;2.58;;;1.83;;
17854;SDS011;9053;53.358;6.382;2023-08-01T04:40:53;4.47;;;1.48;;
17854;SDS011;9053;53.358;6.382;2023-08-01T04:43:23;2.40;;;1.42;;
17854;SDS011;9053;53.358;6.382;2023-08-01T04:45:52;4.90;;;1.77;;
17854;SDS011;9053;53.358;6.382;2023-08-01T04:48:22;3.05;;;1.90;;
17854;SDS011;9053;53.358;6.382;2023-08-01T04:50:52;3.03;;;1.50;;
17854;SDS011;9053;53.358;6.382;2023-08-01T04:53:25;3.40;;;1.30;;
17854;SDS011;9053;53.358;6.382;2023-08-01T04:55:55;5.50;;;2.08;;
17854;SDS011;9053;53.358;6.382;2023-08-01T04:58:24;3.67;;;1.35;;
17854;SDS011;9053;53.358;6.382;2023-08-01T05:00:54;3.28;;;1.40;;
17854;SDS011;9053;53.358;6.382;2023-08-01T05:03:24;4.13;;;1.80;;
17854;SDS011;9053;53.358;6.382;2023-08-01T05:05:57;4.65;;;1.40;;
17854;SDS011;9053;53.358;6.382;2023-08-01T05:08:31;4.28;;;1.70;;
17854;SDS011;9053;53.358;6.382;2023-08-01T05:11:00;3.05;;;1.33;;
17854;SDS011;9053;53.358;6.382;2023-08-01T05:13:30;6.68;;;1.95;;
17854;SDS011;9053;53.358;6.382;2023-08-01T05:16:00;2.22;;;1.42;;
17854;SDS011;9053;53.358;6.382;2023-08-01T05:18:30;3.70;;;1.40;;
17854;SDS011;9053;53.358;6.382;2023-08-01T05:21:00;6.82;;;1.80;;
17854;SDS011;9053;53.358;6.382;2023-08-01T05:23:33;2.38;;;1.20;;
17854;SDS011;9053;53.358;6.382;2023-08-01T05:26:03;2.53;;;1.10;;
17854;SDS011;9053;53.358;6.382;2023-08-01T05:28:33;1.55;;;1.02;;
17854;SDS011;9053;53.358;6.382;2023-08-01T05:31:03;1.58;;;0.90;;
17854;SDS011;9053;53.358;6.382;2023-08-01T05:33:33;2.83;;;1.10;;
17854;SDS011;9053;53.358;6.382;2023-08-01T05:36:03;2.45;;;1.10;;
17854;SDS011;9053;53.358;6.382;2023-08-01T05:38:36;1.05;;;0.90;;
17854;SDS011;9053;53.358;6.382;2023-08-01T05:41:06;2.35;;;1.20;;
17854;SDS011;9053;53.358;6.382;2023-08-01T05:43:36;4.50;;;1.23;;
17854;SDS011;9053;53.358;6.382;2023-08-01T05:46:06;1.20;;;0.85;;
17854;SDS011;9053;53.358;6.382;2023-08-01T05:48:36;2.67;;;1.35;;
17854;SDS011;9053;53.358;6.382;2023-08-01T05:51:06;1.20;;;1.00;;
17854;SDS011;9053;53.358;6.382;2023-08-01T05:53:38;1.13;;;0.80;;
17854;SDS011;9053;53.358;6.382;2023-08-01T05:56:09;3.20;;;0.93;;
17854;SDS011;9053;53.358;6.382;2023-08-01T05:58:39;2.45;;;1.17;;
17854;SDS011;9053;53.358;6.382;2023-08-01T06:01:09;1.50;;;1.00;;
17854;SDS011;9053;53.358;6.382;2023-08-01T06:03:40;2.25;;;1.17;;
17854;SDS011;9053;53.358;6.382;2023-08-01T06:06:10;2.22;;;1.75;;
17854;SDS011;9053;53.358;6.382;2023-08-01T06:08:43;4.00;;;1.27;;
17854;SDS011;9053;53.358;6.382;2023-08-01T06:11:13;2.88;;;1.60;;
17854;SDS011;9053;53.358;6.382;2023-08-01T06:13:43;2.40;;;1.50;;
17854;SDS011;9053;53.358;6.382;2023-08-01T06:16:14;3.17;;;1.50;;
17854;SDS011;9053;53.358;6.382;2023-08-01T06:18:44;2.92;;;1.67;;
17854;SDS011;9053;53.358;6.382;2023-08-01T06:21:14;2.78;;;1.55;;
17854;SDS011;9053;53.358;6.382;2023-08-01T06:23:46;3.25;;;1.38;;
17854;SDS011;9053;53.358;6.382;2023-08-01T06:26:16;3.22;;;1.30;;
17854;SDS011;9053;53.358;6.382;2023-08-01T06:28:46;3.45;;;1.23;;
17854;SDS011;9053;53.358;6.382;2023-08-01T06:31:19;5.80;;;1.58;;
17854;SDS011;9053;53.358;6.382;2023-08-01T06:33:49;3.70;;;1.00;;
17854;SDS011;9053;53.358;6.382;2023-08-01T06:36:19;1.58;;;0.80;;
17854;SDS011;9053;53.358;6.382;2023-08-01T06:38:52;3.13;;;1.00;;
17854;SDS011;9053;53.358;6.382;2023-08-01T06:41:22;1.90;;;1.00;;
17854;SDS011;9053;53.358;6.382;2023-08-01T06:43:52;4.28;;;1.20;;
17854;SDS011;9053;53.358;6.382;2023-08-01T06:46:21;3.65;;;1.20;;
17854;SDS011;9053;53.358;6.382;2023-08-01T06:48:52;3.10;;;1.30;;
17854;SDS011;9053;53.358;6.382;2023-08-01T06:51:22;4.50;;;1.17;;
17854;SDS011;9053;53.358;6.382;2023-08-01T06:53:55;3.33;;;1.00;;
17854;SDS011;9053;53.358;6.382;2023-08-01T06:56:24;3.72;;;1.15;;
17854;SDS011;9053;53.358;6.382;2023-08-01T06:58:55;3.55;;;1.05;;
17854;SDS011;9053;53.358;6.382;2023-08-01T07:01:25;1.55;;;1.20;;
17854;SDS011;9053;53.358;6.382;2023-08-01T07:03:55;2.60;;;1.08;;
17854;SDS011;9053;53.358;6.382;2023-08-01T07:06:26;2.47;;;1.25;;
17854;SDS011;9053;53.358;6.382;2023-08-01T07:08:59;2.83;;;0.90;;
17854;SDS011;9053;53.358;6.382;2023-08-01T07:11:30;4.20;;;1.15;;
17854;SDS011;9053;53.358;6.382;2023-08-01T07:14:00;2.33;;;0.90;;
17854;SDS011;9053;53.358;6.382;2023-08-01T07:16:30;5.05;;;0.95;;
17854;SDS011;9053;53.358;6.382;2023-08-01T07:19:00;3.53;;;0.80;;
17854;SDS011;9053;53.358;6.382;2023-08-01T07:21:30;2.30;;;0.90;;
17854;SDS011;9053;53.358;6.382;2023-08-01T07:24:03;2.70;;;0.80;;
17854;SDS011;9053;53.358;6.382;2023-08-01T07:26:34;2.65;;;1.17;;
17854;SDS011;9053;53.358;6.382;2023-08-01T07:29:04;1.95;;;0.88;;
17854;SDS011;9053;53.358;6.382;2023-08-01T07:31:34;2.95;;;1.30;;
17854;SDS011;9053;53.358;6.382;2023-08-01T07:34:04;3.78;;;1.10;;
17854;SDS011;9053;53.358;6.382;2023-08-01T07:36:34;3.05;;;0.90;;
17854;SDS011;9053;53.358;6.382;2023-08-01T07:39:07;3.15;;;1.35;;
17854;SDS011;9053;53.358;6.382;2023-08-01T07:41:37;5.88;;;1.48;;
17854;SDS011;9053;53.358;6.382;2023-08-01T07:44:07;5.53;;;1.25;;
17854;SDS011;9053;53.358;6.382;2023-08-01T07:46:37;3.85;;;1.10;;
17854;SDS011;9053;53.358;6.382;2023-08-01T07:49:08;4.38;;;1.42;;
17854;SDS011;9053;53.358;6.382;2023-08-01T07:51:37;3.50;;;1.25;;
17854;SDS011;9053;53.358;6.382;2023-08-01T07:54:10;3.15;;;1.30;;
17854;SDS011;9053;53.358;6.382;2023-08-01T07:56:40;2.20;;;1.20;;
17854;SDS011;9053;53.358;6.382;2023-08-01T07:59:10;4.05;;;1.58;;
17854;SDS011;9053;53.358;6.382;2023-08-01T08:01:40;7.45;;;1.40;;
17854;SDS011;9053;53.358;6.382;2023-08-01T08:04:10;4.88;;;1.40;;
17854;SDS011;9053;53.358;6.382;2023-08-01T08:06:40;6.10;;;1.52;;
17854;SDS011;9053;53.358;6.382;2023-08-01T08:09:13;2.42;;;1.20;;
17854;SDS011;9053;53.358;6.382;2023-08-01T08:11:43;5.40;;;1.50;;
17854;SDS011;9053;53.358;6.382;2023-08-01T08:14:13;5.20;;;1.80;;
17854;SDS011;9053;53.358;6.382;2023-08-01T08:16:43;3.53;;;1.33;;
17854;SDS011;9053;53.358;6.382;2023-08-01T08:19:13;3.15;;;1.30;;
17854;SDS011;9053;53.358;6.382;2023-08-01T08:21:43;5.90;;;1.67;;
17854;SDS011;9053;53.358;6.382;2023-08-01T08:24:16;2.85;;;1.27;;
17854;SDS011;9053;53.358;6.382;2023-08-01T08:26:46;5.03;;;1.30;;
17854;SDS011;9053;53.358;6.382;2023-08-01T08:29:16;1.92;;;1.00;;
17854;SDS011;9053;53.358;6.382;2023-08-01T08:31:46;1.23;;;0.80;;
17854;SDS011;9053;53.358;6.382;2023-08-01T08:34:16;1.27;;;0.80;;
17854;SDS011;9053;53.358;6.382;2023-08-01T08:36:46;1.42;;;0.80;;
17854;SDS011;9053;53.358;6.382;2023-08-01T08:39:19;1.70;;;0.75;;
17854;SDS011;9053;53.358;6.382;2023-08-01T08:41:50;1.50;;;0.88;;
17854;SDS011;9053;53.358;6.382;2023-08-01T08:44:21;1.77;;;0.80;;
17854;SDS011;9053;53.358;6.382;2023-08-01T08:46:51;2.17;;;1.00;;
17854;SDS011;9053;53.358;6.382;2023-08-01T08:49:22;0.70;;;0.70;;
17854;SDS011;9053;53.358;6.382;2023-08-01T08:51:54;2.55;;;1.10;;
17854;SDS011;9053;53.358;6.382;2023-08-01T08:54:26;5.63;;;1.20;;
17854;SDS011;9053;53.358;6.382;2023-08-01T08:56:57;1.85;;;1.00;;
17854;SDS011;9053;53.358;6.382;2023-08-01T08:59:29;1.70;;;0.90;;
17854;SDS011;9053;53.358;6.382;2023-08-01T09:02:00;2.78;;;1.00;;
17854;SDS011;9053;53.358;6.382;2023-08-01T09:04:32;1.90;;;1.08;;
17854;SDS011;9053;53.358;6.382;2023-08-01T09:07:03;4.35;;;1.15;;
17854;SDS011;9053;53.358;6.382;2023-08-01T09:09:40;2.97;;;1.10;;
17854;SDS011;9053;53.358;6.382;2023-08-01T09:12:10;3.20;;;1.38;;
17854;SDS011;9053;53.358;6.382;2023-08-01T09:14:41;3.25;;;1.23;;
17854;SDS011;9053;53.358;6.382;2023-08-01T09:17:12;5.88;;;1.40;;
17854;SDS011;9053;53.358;6.382;2023-08-01T09:19:43;3.45;;;1.38;;
17854;SDS011;9053;53.358;6.382;2023-08-01T09:22:13;2.42;;;1.05;;
17854;SDS011;9053;53.358;6.382;2023-08-01T09:24:52;4.32;;;1.20;;
17854;SDS011;9053;53.358;6.382;2023-08-01T09:27:22;2.88;;;1.00;;
17854;SDS011;9053;53.358;6.382;2023-08-01T09:29:52;3.08;;;1.10;;
17854;SDS011;9053;53.358;6.382;2023-08-01T09:32:22;4.30;;;1.10;;
17854;SDS011;9053;53.358;6.382;2023-08-01T09:34:57;4.72;;;1.20;;
17854;SDS011;9053;53.358;6.382;2023-08-01T09:37:36;2.60;;;1.10;;
17854;SDS011;9053;53.358;6.382;2023-08-01T09:40:13;3.13;;;1.05;;
17854;SDS011;9053;53.358;6.382;2023-08-01T09:42:43;4.53;;;1.23;;
17854;SDS011;9053;53.358;6.382;2023-08-01T09:45:14;8.35;;;1.48;;
17854;SDS011;9053;53.358;6.382;2023-08-01T09:47:45;3.90;;;1.30;;
17854;SDS011;9053;53.358;6.382;2023-08-01T09:50:19;3.47;;;1.10;;
17854;SDS011;9053;53.358;6.382;2023-08-01T09:52:51;2.40;;;1.20;;
17854;SDS011;9053;53.358;6.382;2023-08-01T09:55:25;2.78;;;1.17;;
17854;SDS011;9053;53.358;6.382;2023-08-01T09:58:00;2.80;;;1.25;;
17854;SDS011;9053;53.358;6.382;2023-08-01T10:00:33;3.42;;;1.10;;
17854;SDS011;9053;53.358;6.382;2023-08-01T10:03:03;3.17;;;1.10;;
17854;SDS011;9053;53.358;6.382;2023-08-01T10:05:34;7.00;;;1.80;;
17854;SDS011;9053;53.358;6.382;2023-08-01T10:08:09;6.05;;;1.60;;
17854;SDS011;9053;53.358;6.382;2023-08-01T10:10:43;3.85;;;1.33;;
17854;SDS011;9053;53.358;6.382;2023-08-01T10:13:13;9.85;;;1.98;;
17854;SDS011;9053;53.358;6.382;2023-08-01T10:15:44;7.68;;;1.75;;
17854;SDS011;9053;53.358;6.382;2023-08-01T10:18:16;4.80;;;1.83;;
17854;SDS011;9053;53.358;6.382;2023-08-01T10:20:46;5.00;;;1.85;;
17854;SDS011;9053;53.358;6.382;2023-08-01T10:23:16;4.63;;;1.70;;
17854;SDS011;9053;53.358;6.382;2023-08-01T10:25:51;3.85;;;1.60;;
17854;SDS011;9053;53.358;6.382;2023-08-01T10:28:30;4.35;;;1.63;;
17854;SDS011;9053;53.358;6.382;2023-08-01T10:31:07;7.18;;;2.15;;
17854;SDS011;9053;53.358;6.382;2023-08-01T10:33:38;6.20;;;1.65;;
17854;SDS011;9053;53.358;6.382;2023-08-01T10:36:13;5.45;;;1.80;;
17854;SDS011;9053;53.358;6.382;2023-08-01T10:38:46;7.15;;;2.05;;
17854;SDS011;9053;53.358;6.382;2023-08-01T10:41:24;4.90;;;1.80;;
17854;SDS011;9053;53.358;6.382;2023-08-01T10:44:05;3.00;;;1.60;;
17854;SDS011;9053;53.358;6.382;2023-08-01T10:46:46;4.28;;;1.38;;
17854;SDS011;9053;53.358;6.382;2023-08-01T10:49:18;3.88;;;1.88;;
17854;SDS011;9053;53.358;6.382;2023-08-01T10:51:48;4.55;;;1.42;;
17854;SDS011;9053;53.358;6.382;2023-08-01T10:54:19;4.63;;;1.60;;
17854;SDS011;9053;53.358;6.382;2023-08-01T10:56:53;4.60;;;1.73;;
17854;SDS011;9053;53.358;6.382;2023-08-01T10:59:24;5.90;;;1.52;;
17854;SDS011;9053;53.358;6.382;2023-08-01T11:01:57;4.20;;;1.30;;
17854;SDS011;9053;53.358;6.382;2023-08-01T11:04:29;5.20;;;1.50;;
17854;SDS011;9053;53.358;6.382;2023-08-01T11:06:59;4.57;;;1.55;;
17854;SDS011;9053;53.358;6.382;2023-08-01T11:09:29;2.45;;;1.23;;
17854;SDS011;9053;53.358;6.382;2023-08-01T11:12:01;3.38;;;1.30;;
17854;SDS011;9053;53.358;6.382;2023-08-01T11:14:32;2.78;;;1.10;;
17854;SDS011;9053;53.358;6.382;2023-08-01T11:17:03;3.88;;;1.50;;
17854;SDS011;9053;53.358;6.382;2023-08-01T11:19:33;6.45;;;1.60;;
17854;SDS011;9053;53.358;6.382;2023-08-01T11:22:08;4.32;;;1.52;;
17854;SDS011;9053;53.358;6.382;2023-08-01T11:24:39;3.10;;;1.42;;
17854;SDS011;9053;53.358;6.382;2023-08-01T11:27:12;2.53;;;1.13;;
17854;SDS011;9053;53.358;6.382;2023-08-01T11:29:42;4.70;;;1.42;;
17854;SDS011;9053;53.358;6.382;2023-08-01T11:32:12;3.45;;;1.40;;
17854;SDS011;9053;53.358;6.382;2023-08-01T11:34:42;2.50;;;1.27;;
17854;SDS011;9053;53.358;6.382;2023-08-01T11:37:17;5.75;;;1.40;;
17854;SDS011;9053;53.358;6.382;2023-08-01T11:39:48;5.40;;;1.27;;
17854;SDS011;9053;53.358;6.382;2023-08-01T11:42:21;4.03;;;1.00;;
17854;SDS011;9053;53.358;6.382;2023-08-01T11:44:50;6.80;;;1.45;;
17854;SDS011;9053;53.358;6.382;2023-08-01T11:47:20;3.45;;;1.33;;
17854;SDS011;9053;53.358;6.382;2023-08-01T11:49:51;4.53;;;1.48;;
17854;SDS011;9053;53.358;6.382;2023-08-01T11:52:24;3.75;;;1.27;;
17854;SDS011;9053;53.358;6.382;2023-08-01T11:54:54;4.72;;;1.58;;
17854;SDS011;9053;53.358;6.382;2023-08-01T11:57:27;4.32;;;1.50;;
17854;SDS011;9053;53.358;6.382;2023-08-01T11:59:57;5.50;;;1.20;;
17854;SDS011;9053;53.358;6.382;2023-08-01T12:02:28;2.17;;;1.17;;
17854;SDS011;9053;53.358;6.382;2023-08-01T12:05:00;2.55;;;1.08;;
17854;SDS011;9053;53.358;6.382;2023-08-01T12:07:31;2.17;;;1.10;;
17854;SDS011;9053;53.358;6.382;2023-08-01T12:10:01;4.03;;;1.20;;
17854;SDS011;9053;53.358;6.382;2023-08-01T12:12:43;5.18;;;1.42;;
17854;SDS011;9053;53.358;6.382;2023-08-01T12:15:13;4.43;;;1.50;;
17854;SDS011;9053;53.358;6.382;2023-08-01T12:17:44;5.25;;;1.40;;
17854;SDS011;9053;53.358;6.382;2023-08-01T12:20:14;3.08;;;1.05;;
17854;SDS011;9053;53.358;6.382;2023-08-01T12:22:44;3.83;;;1.20;;
17854;SDS011;9053;53.358;6.382;2023-08-01T12:25:14;2.72;;;1.27;;
17854;SDS011;9053;53.358;6.382;2023-08-01T12:27:47;4.22;;;1.35;;
17854;SDS011;9053;53.358;6.382;2023-08-01T12:30:18;3.95;;;1.20;;
17854;SDS011;9053;53.358;6.382;2023-08-01T12:32:48;3.03;;;1.20;;
17854;SDS011;9053;53.358;6.382;2023-08-01T12:35:18;5.15;;;1.33;;
17854;SDS011;9053;53.358;6.382;2023-08-01T12:37:48;3.80;;;1.45;;
17854;SDS011;9053;53.358;6.382;2023-08-01T12:40:18;4.32;;;1.60;;
17854;SDS011;9053;53.358;6.382;2023-08-01T12:42:51;4.68;;;1.48;;
17854;SDS011;9053;53.358;6.382;2023-08-01T12:45:21;4.43;;;1.40;;
17854;SDS011;9053;53.358;6.382;2023-08-01T12:47:50;4.55;;;1.40;;
17854;SDS011;9053;53.358;6.382;2023-08-01T12:50:21;4.40;;;1.30;;
17854;SDS011;9053;53.358;6.382;2023-08-01T12:52:50;4.28;;;1.42;;
17854;SDS011;9053;53.358;6.382;2023-08-01T12:55:20;3.97;;;1.58;;
17854;SDS011;9053;53.358;6.382;2023-08-01T12:57:53;2.85;;;1.40;;
17854;SDS011;9053;53.358;6.382;2023-08-01T13:00:23;4.45;;;1.83;;
17854;SDS011;9053;53.358;6.382;2023-08-01T13:02:54;2.72;;;1.20;;
17854;SDS011;9053;53.358;6.382;2023-08-01T13:05:25;3.47;;;1.70;;
17854;SDS011;9053;53.358;6.382;2023-08-01T13:07:55;3.92;;;1.30;;
17854;SDS011;9053;53.358;6.382;2023-08-01T13:10:25;4.15;;;1.50;;
17854;SDS011;9053;53.358;6.382;2023-08-01T13:12:57;3.42;;;1.27;;
17854;SDS011;9053;53.358;6.382;2023-08-01T13:15:28;3.63;;;1.50;;
17854;SDS011;9053;53.358;6.382;2023-08-01T13:17:58;5.30;;;1.50;;
17854;SDS011;9053;53.358;6.382;2023-08-01T13:20:28;2.30;;;1.30;;
17854;SDS011;9053;53.358;6.382;2023-08-01T13:23:02;4.40;;;1.20;;
17854;SDS011;9053;53.358;6.382;2023-08-01T13:25:32;3.05;;;1.45;;
17854;SDS011;9053;53.358;6.382;2023-08-01T13:28:05;3.38;;;1.10;;
17854;SDS011;9053;53.358;6.382;2023-08-01T13:30:35;3.70;;;1.60;;
17854;SDS011;9053;53.358;6.382;2023-08-01T13:33:05;2.40;;;1.00;;
17854;SDS011;9053;53.358;6.382;2023-08-01T13:35:35;4.47;;;1.05;;
17854;SDS011;9053;53.358;6.382;2023-08-01T13:38:05;4.60;;;1.10;;
17854;SDS011;9053;53.358;6.382;2023-08-01T13:40:36;2.53;;;1.20;;
17854;SDS011;9053;53.358;6.382;2023-08-01T13:43:09;3.00;;;0.90;;
17854;SDS011;9053;53.358;6.382;2023-08-01T13:45:39;3.22;;;1.00;;
17854;SDS011;9053;53.358;6.382;2023-08-01T13:48:09;2.10;;;0.90;;
17854;SDS011;9053;53.358;6.382;2023-08-01T13:50:39;3.10;;;1.00;;
17854;SDS011;9053;53.358;6.382;2023-08-01T13:53:09;5.18;;;1.08;;
17854;SDS011;9053;53.358;6.382;2023-08-01T13:55:40;2.97;;;1.30;;
17854;SDS011;9053;53.358;6.382;2023-08-01T13:58:13;4.25;;;1.30;;
17854;SDS011;9053;53.358;6.382;2023-08-01T14:00:42;3.30;;;1.33;;
17854;SDS011;9053;53.358;6.382;2023-08-01T14:03:13;6.10;;;1.23;;
17854;SDS011;9053;53.358;6.382;2023-08-01T14:05:43;6.75;;;1.38;;
17854;SDS011;9053;53.358;6.382;2023-08-01T14:08:13;3.33;;;1.10;;
17854;SDS011;9053;53.358;6.382;2023-08-01T14:10:43;3.50;;;1.55;;
17854;SDS011;9053;53.358;6.382;2023-08-01T14:13:15;5.05;;;1.30;;
17854;SDS011;9053;53.358;6.382;2023-08-01T14:15:45;4.13;;;1.10;;
17854;SDS011;9053;53.358;6.382;2023-08-01T14:18:15;5.30;;;1.30;;
17854;SDS011;9053;53.358;6.382;2023-08-01T14:20:45;4.47;;;1.30;;
17854;SDS011;9053;53.358;6.382;2023-08-01T14:23:16;6.53;;;1.50;;
17854;SDS011;9053;53.358;6.382;2023-08-01T14:25:45;6.72;;;1.40;;
17854;SDS011;9053;53.358;6.382;2023-08-01T14:28:18;3.03;;;1.30;;
17854;SDS011;9053;53.358;6.382;2023-08-01T14:30:48;5.72;;;2.22;;
17854;SDS011;9053;53.358;6.382;2023-08-01T14:33:19;3.97;;;1.77;;
17854;SDS011;9053;53.358;6.382;2023-08-01T14:35:49;3.92;;;1.70;;
17854;SDS011;9053;53.358;6.382;2023-08-01T14:38:18;5.40;;;1.90;;
17854;SDS011;9053;53.358;6.382;2023-08-01T14:40:48;7.60;;;1.85;;
17854;SDS011;9053;53.358;6.382;2023-08-01T14:43:30;5.43;;;1.30;;
17854;SDS011;9053;53.358;6.382;2023-08-01T14:46:00;6.20;;;1.88;;
17854;SDS011;9053;53.358;6.382;2023-08-01T14:48:30;4.00;;;1.40;;
17854;SDS011;9053;53.358;6.382;2023-08-01T14:51:00;3.05;;;1.50;;
17854;SDS011;9053;53.358;6.382;2023-08-01T14:53:34;4.20;;;2.08;;
17854;SDS011;9053;53.358;6.382;2023-08-01T14:56:04;4.13;;;1.60;;
17854;SDS011;9053;53.358;6.382;2023-08-01T14:58:38;5.00;;;3.35;;
17854;SDS011;9053;53.358;6.382;2023-08-01T15:01:11;4.03;;;1.70;;
17854;SDS011;9053;53.358;6.382;2023-08-01T15:03:42;3.90;;;1.30;;
17854;SDS011;9053;53.358;6.382;2023-08-01T15:06:12;5.25;;;1.80;;
17854;SDS011;9053;53.358;6.382;2023-08-01T15:08:44;7.35;;;3.38;;
17854;SDS011;9053;53.358;6.382;2023-08-01T15:11:14;5.72;;;1.90;;
17854;SDS011;9053;53.358;6.382;2023-08-01T15:13:47;5.10;;;1.80;;
17854;SDS011;9053;53.358;6.382;2023-08-01T15:16:17;4.88;;;2.28;;
17854;SDS011;9053;53.358;6.382;2023-08-01T15:18:48;3.47;;;1.58;;
17854;SDS011;9053;53.358;6.382;2023-08-01T15:21:17;3.13;;;1.50;;
17854;SDS011;9053;53.358;6.382;2023-08-01T15:23:48;3.65;;;2.03;;